createdAt,value
2023-03-18T00:02:18.525Z,59.22
2023-03-18T00:04:46.615Z,59.23
2023-03-18T00:07:14.582Z,59.34
2023-03-18T00:09:42.763Z,59.33
2023-03-18T00:12:10.621Z,59.25
2023-03-18T00:14:38.605Z,59.59
2023-03-18T00:17:06.517Z,59.37
2023-03-18T00:19:34.131Z,59.64
2023-03-18T00:22:01.754Z,59.67
2023-03-18T00:24:29.569Z,59.69
2023-03-18T00:26:57.188Z,60.04
2023-03-18T00:29:25.201Z,59.76
2023-03-18T00:31:53.050Z,60.22
2023-03-18T00:34:21.074Z,59.90
2023-03-18T00:36:50.850Z,60.13
2023-03-18T00:39:21.655Z,59.99
2023-03-18T00:41:49.331Z,60.07
2023-03-18T00:44:17.836Z,60.16
2023-03-18T00:46:45.522Z,60.19
2023-03-18T00:49:13.870Z,60.28
2023-03-18T00:51:42.968Z,60.33
2023-03-18T00:54:12.779Z,60.32
2023-03-18T00:56:40.380Z,60.31
2023-03-18T00:59:08.797Z,60.50
2023-03-18T01:01:37.750Z,60.38
2023-03-18T01:04:06.521Z,60.50
2023-03-18T01:06:35.439Z,60.53
2023-03-18T01:09:05.210Z,60.60
2023-03-18T01:11:33.345Z,60.68
2023-03-18T01:14:01.350Z,60.51
2023-03-18T01:16:30.171Z,60.81
2023-03-18T01:18:58.361Z,60.87
2023-03-18T01:21:26.702Z,60.70
2023-03-18T01:23:57.327Z,60.92
2023-03-18T01:26:26.541Z,61.03
2023-03-18T01:28:55.941Z,61.01
2023-03-18T01:31:25.437Z,61.11
2023-03-18T01:33:54.438Z,61.17
2023-03-18T01:36:22.819Z,61.07
2023-03-18T01:39:01.819Z,61.17
2023-03-18T01:41:30.151Z,61.10
2023-03-18T01:43:58.595Z,61.24
2023-03-18T01:46:32.553Z,61.27
2023-03-18T01:49:02.462Z,61.22
2023-03-18T01:51:31.011Z,61.28
2023-03-18T01:54:00.417Z,61.35
2023-03-18T01:56:28.134Z,61.38
2023-03-18T01:58:57.508Z,61.40
2023-03-18T02:01:32.377Z,61.61
2023-03-18T02:04:02.234Z,61.51
2023-03-18T02:06:30.607Z,61.61
2023-03-18T02:09:01.348Z,61.66
2023-03-18T02:11:34.630Z,61.47
2023-03-18T02:14:04.226Z,61.54
2023-03-18T02:16:35.277Z,61.70
2023-03-18T02:19:07.491Z,61.71
2023-03-18T02:21:53.070Z,61.52
2023-03-18T02:24:36.129Z,61.67
2023-03-18T02:27:21.210Z,61.81
2023-03-18T02:29:49.641Z,61.96
2023-03-18T02:32:20.764Z,62.11
2023-03-18T02:34:49.075Z,62.12
2023-03-18T02:37:16.785Z,62.09
2023-03-18T02:39:44.920Z,62.01
2023-03-18T02:42:18.138Z,62.08
2023-03-18T02:44:50.597Z,62.18
2023-03-18T02:47:34.525Z,62.16
2023-03-18T02:50:03.693Z,62.31
2023-03-18T02:52:31.552Z,62.28
2023-03-18T02:54:59.427Z,62.27
2023-03-18T02:57:27.804Z,62.45
2023-03-18T02:59:57.977Z,62.45
2023-03-18T03:02:26.317Z,62.55
2023-03-18T03:04:54.216Z,62.45
2023-03-18T03:07:25.628Z,62.54
2023-03-18T03:09:53.557Z,62.56
2023-03-18T03:12:21.721Z,62.47
2023-03-18T03:14:52.408Z,62.57
2023-03-18T03:17:20.544Z,62.49
2023-03-18T03:19:48.243Z,62.47
2023-03-18T03:22:17.363Z,63.00
2023-03-18T03:24:47.344Z,62.61
2023-03-18T03:27:15.173Z,62.78
2023-03-18T03:29:43.438Z,62.77
2023-03-18T03:32:11.877Z,62.61
2023-03-18T03:34:39.451Z,62.75
2023-03-18T03:37:07.222Z,62.73
2023-03-18T03:39:34.857Z,62.67
2023-03-18T03:42:02.528Z,62.72
2023-03-18T03:44:30.203Z,62.81
2023-03-18T03:46:57.870Z,62.74
2023-03-18T03:49:25.566Z,62.83
2023-03-18T03:51:53.280Z,62.69
2023-03-18T03:54:23.435Z,62.79
2023-03-18T03:56:51.524Z,62.84
2023-03-18T03:59:20.073Z,62.86
2023-03-18T04:02:08.882Z,62.94
2023-03-18T04:04:37.564Z,63.01
2023-03-18T04:07:06.353Z,62.86
2023-03-18T04:09:36.140Z,63.02
2023-03-18T04:12:05.534Z,62.91
2023-03-18T04:14:33.996Z,62.91
2023-03-18T04:17:01.605Z,62.91
2023-03-18T04:19:30.382Z,63.00
2023-03-18T04:21:57.970Z,63.00
2023-03-18T04:24:26.226Z,62.80
2023-03-18T04:26:53.926Z,62.96
2023-03-18T04:29:22.655Z,63.16
2023-03-18T04:31:50.651Z,62.81
2023-03-18T04:34:18.735Z,62.91
2023-03-18T04:36:47.821Z,63.06
2023-03-18T04:39:16.457Z,63.01
2023-03-18T04:41:44.853Z,63.17
2023-03-18T04:44:13.356Z,63.11
2023-03-18T04:46:46.074Z,62.99
2023-03-18T04:49:13.999Z,63.06
2023-03-18T04:51:42.457Z,63.08
2023-03-18T04:54:18.160Z,63.05
2023-03-18T04:56:46.708Z,63.21
2023-03-18T04:59:15.386Z,63.22
2023-03-18T05:01:43.238Z,63.16
2023-03-18T05:04:12.309Z,63.05
2023-03-18T05:06:46.577Z,63.14
2023-03-18T05:09:15.135Z,63.10
2023-03-18T05:11:43.536Z,63.19
2023-03-18T05:14:15.916Z,63.20
2023-03-18T05:16:47.633Z,63.30
2023-03-18T05:19:17.039Z,63.19
2023-03-18T05:21:53.930Z,63.15
2023-03-18T05:24:22.748Z,63.06
2023-03-18T05:26:51.513Z,63.14
2023-03-18T05:29:23.818Z,63.11
2023-03-18T05:32:01.528Z,63.07
2023-03-18T05:34:30.009Z,63.16
2023-03-18T05:36:58.579Z,63.19
2023-03-18T05:39:26.698Z,63.01
2023-03-18T05:41:54.634Z,63.08
2023-03-18T05:44:26.195Z,63.07
2023-03-18T05:46:54.659Z,63.11
2023-03-18T05:49:36.147Z,63.07
2023-03-18T05:52:17.322Z,63.09
2023-03-18T05:54:48.175Z,63.03
2023-03-18T05:57:21.079Z,62.98
2023-03-18T05:59:50.030Z,62.98
2023-03-18T06:02:18.408Z,62.96
2023-03-18T06:04:46.482Z,62.94
2023-03-18T06:07:15.290Z,62.88
2023-03-18T06:09:43.249Z,62.88
2023-03-18T06:12:11.452Z,62.88
2023-03-18T06:14:39.600Z,62.86
2023-03-18T06:17:08.287Z,62.84
2023-03-18T06:19:36.028Z,62.88
2023-03-18T06:22:03.718Z,62.78
2023-03-18T06:24:31.455Z,62.77
2023-03-18T06:26:59.067Z,62.80
2023-03-18T06:29:26.892Z,62.86
2023-03-18T06:31:57.022Z,62.90
2023-03-18T06:34:26.840Z,62.74
2023-03-18T06:36:56.934Z,62.81
2023-03-18T06:39:24.838Z,62.81
2023-03-18T06:41:53.022Z,62.58
2023-03-18T06:44:28.259Z,62.59
2023-03-18T06:46:58.830Z,62.66
2023-03-18T06:49:27.881Z,62.70
2023-03-18T06:52:03.637Z,62.65
2023-03-18T06:54:32.359Z,62.70
2023-03-18T06:57:01.548Z,62.62
2023-03-18T06:59:29.592Z,62.70
2023-03-18T07:01:58.194Z,62.52
2023-03-18T07:04:26.507Z,62.47
2023-03-18T07:06:54.815Z,62.50
2023-03-18T07:09:23.412Z,62.26
2023-03-18T07:11:53.614Z,62.44
2023-03-18T07:14:22.885Z,62.33
2023-03-18T07:16:51.000Z,62.28
2023-03-18T07:19:19.448Z,62.08
2023-03-18T07:21:47.463Z,62.19
2023-03-18T07:24:16.672Z,62.01
2023-03-18T07:26:44.307Z,61.95
2023-03-18T07:29:12.079Z,61.99
2023-03-18T07:31:39.993Z,61.87
2023-03-18T07:34:09.396Z,61.72
2023-03-18T07:36:38.155Z,62.01
2023-03-18T07:39:06.549Z,61.82
2023-03-18T07:41:37.290Z,61.84
2023-03-18T07:44:07.720Z,61.88
2023-03-18T07:46:35.722Z,61.75
2023-03-18T07:49:03.465Z,61.90
2023-03-18T07:51:31.607Z,61.79
2023-03-18T07:53:59.669Z,61.66
2023-03-18T07:56:27.326Z,61.35
2023-03-18T07:58:55.035Z,61.26
2023-03-18T08:01:22.628Z,61.41
2023-03-18T08:03:50.576Z,61.39
2023-03-18T08:06:20.583Z,61.32
2023-03-18T08:08:49.289Z,61.33
2023-03-18T08:11:17.224Z,61.24
2023-03-18T08:13:44.905Z,61.08
2023-03-18T08:16:13.416Z,61.26
2023-03-18T08:18:42.053Z,61.24
2023-03-18T08:21:10.537Z,61.02
2023-03-18T08:23:38.632Z,60.95
2023-03-18T08:26:06.785Z,60.95
2023-03-18T08:28:34.397Z,60.70
2023-03-18T08:31:03.329Z,60.75
2023-03-18T08:33:30.972Z,60.80
2023-03-18T08:35:59.341Z,60.95
2023-03-18T08:38:27.247Z,60.57
2023-03-18T08:40:56.652Z,60.67
2023-03-18T08:43:25.027Z,60.61
2023-03-18T08:45:53.904Z,60.62
2023-03-18T08:48:23.205Z,60.36
2023-03-18T08:50:51.280Z,60.32
2023-03-18T08:53:19.584Z,60.39
2023-03-18T08:55:48.483Z,60.21
2023-03-18T08:58:16.330Z,60.47
2023-03-18T09:00:44.526Z,60.34
2023-03-18T09:03:12.935Z,60.19
2023-03-18T09:05:40.675Z,60.02
2023-03-18T09:08:08.369Z,59.84
2023-03-18T09:10:36.212Z,59.91
2023-03-18T09:13:05.488Z,60.16
2023-03-18T09:15:33.397Z,59.96
2023-03-18T09:18:11.458Z,59.98
2023-03-18T09:20:40.835Z,59.74
2023-03-18T09:23:09.250Z,59.82
2023-03-18T09:25:36.897Z,59.62
2023-03-18T09:28:04.769Z,59.43
2023-03-18T09:30:33.654Z,59.11
2023-03-18T09:33:01.878Z,59.47
2023-03-18T09:35:29.731Z,59.22
2023-03-18T09:37:57.455Z,59.41
2023-03-18T09:40:29.502Z,59.28
2023-03-18T09:43:13.160Z,59.31
2023-03-18T09:45:57.537Z,58.81
2023-03-18T09:48:31.739Z,59.05
2023-03-18T09:51:05.271Z,59.08
2023-03-18T09:53:41.932Z,59.14
2023-03-18T09:56:16.517Z,58.47
2023-03-18T09:59:00.204Z,58.88
2023-03-18T10:01:29.060Z,58.81
2023-03-18T10:04:07.212Z,58.84
2023-03-18T10:06:37.436Z,58.43
2023-03-18T10:09:05.174Z,57.98
2023-03-18T10:11:43.931Z,58.25
2023-03-18T10:14:27.536Z,58.32
2023-03-18T10:17:05.630Z,58.25
2023-03-18T10:19:33.917Z,57.96
2023-03-18T10:22:04.960Z,57.76
2023-03-18T10:24:48.746Z,57.84
2023-03-18T10:27:16.932Z,57.81
2023-03-18T10:29:45.168Z,57.68
2023-03-18T10:32:15.549Z,57.50
2023-03-18T10:34:56.943Z,57.28
2023-03-18T10:37:24.599Z,57.47
2023-03-18T10:39:53.120Z,57.01
2023-03-18T10:42:24.241Z,56.91
2023-03-18T10:44:54.585Z,56.95
2023-03-18T10:47:28.143Z,56.55
2023-03-18T10:49:57.385Z,56.66
2023-03-18T10:52:30.993Z,56.20
2023-03-18T10:54:59.780Z,56.38
2023-03-18T10:57:27.881Z,56.36
2023-03-18T10:59:55.943Z,55.99
2023-03-18T11:02:32.569Z,56.06
2023-03-18T11:05:04.682Z,55.89
2023-03-18T11:07:33.254Z,55.22
2023-03-18T11:10:24.176Z,55.30
2023-03-18T11:12:55.618Z,55.59
2023-03-18T11:15:25.008Z,55.70
2023-03-18T11:17:58.220Z,55.22
2023-03-18T11:20:42.992Z,55.00
2023-03-18T11:23:20.299Z,54.85
2023-03-18T11:25:48.961Z,54.04
2023-03-18T11:28:21.654Z,54.74
2023-03-18T11:30:56.474Z,54.62
2023-03-18T11:33:25.152Z,54.31
2023-03-18T11:36:13.195Z,54.62
2023-03-18T11:38:40.823Z,52.29
2023-03-18T11:41:17.563Z,54.14
2023-03-18T11:44:00.219Z,53.88
2023-03-18T11:46:31.130Z,53.74
2023-03-18T11:48:59.373Z,53.81
2023-03-18T11:51:38.048Z,53.22
2023-03-18T11:54:13.112Z,53.45
2023-03-18T11:56:48.667Z,52.95
2023-03-18T11:59:16.358Z,52.92
2023-03-18T12:01:50.157Z,51.98
2023-03-18T12:04:33.853Z,52.22
2023-03-18T12:07:13.030Z,52.31
2023-03-18T12:09:56.864Z,52.16
2023-03-18T12:12:25.361Z,52.08
2023-03-18T12:15:09.995Z,52.58
2023-03-18T12:17:40.650Z,51.66
2023-03-18T12:20:24.275Z,51.59
2023-03-18T12:23:07.893Z,51.40
2023-03-18T12:25:38.755Z,50.65
2023-03-18T12:28:22.384Z,50.97
2023-03-18T12:30:53.069Z,50.81
2023-03-18T12:33:36.726Z,50.95
2023-03-18T12:36:12.407Z,50.28
2023-03-18T12:38:43.228Z,50.30
2023-03-18T12:41:28.617Z,50.90
2023-03-18T12:44:12.269Z,50.47
2023-03-18T12:46:46.898Z,50.91
2023-03-18T12:49:19.681Z,51.14
2023-03-18T12:51:50.904Z,51.21
2023-03-18T12:54:26.405Z,49.50
2023-03-18T12:56:58.406Z,49.78
2023-03-18T12:59:26.053Z,49.59
2023-03-18T13:02:02.128Z,49.29
2023-03-18T13:04:31.979Z,48.59
2023-03-18T13:07:05.778Z,49.58
2023-03-18T13:09:34.589Z,50.28
2023-03-18T13:12:05.589Z,49.47
2023-03-18T13:14:49.305Z,48.33
2023-03-18T13:17:33.068Z,48.69
2023-03-18T13:20:01.969Z,47.44
2023-03-18T13:22:48.539Z,48.74
2023-03-18T13:25:33.491Z,47.95
2023-03-18T13:28:17.254Z,48.87
2023-03-18T13:31:01.021Z,49.00
2023-03-18T13:33:38.600Z,47.72
2023-03-18T13:36:12.751Z,48.71
2023-03-18T13:38:46.017Z,48.21
2023-03-18T13:41:13.677Z,48.28
2023-03-18T13:43:46.273Z,47.85
2023-03-18T13:46:25.374Z,47.19
2023-03-18T13:48:57.223Z,47.67
2023-03-18T13:51:24.831Z,47.80
2023-03-18T13:53:54.671Z,47.80
2023-03-18T13:56:28.426Z,47.31
2023-03-18T13:58:56.058Z,47.88
2023-03-18T14:01:24.391Z,47.03
2023-03-18T14:03:53.665Z,47.41
2023-03-18T14:06:21.491Z,47.01
2023-03-18T14:08:51.054Z,47.22
2023-03-18T14:11:23.167Z,46.76
2023-03-18T14:13:52.168Z,46.61
2023-03-18T14:16:24.645Z,46.23
2023-03-18T14:19:08.336Z,46.31
2023-03-18T14:21:44.512Z,45.96
2023-03-18T14:24:12.506Z,46.22
2023-03-18T14:26:41.197Z,46.20
2023-03-18T14:29:09.330Z,45.83
2023-03-18T14:31:40.317Z,46.52
2023-03-18T14:34:09.976Z,46.43
2023-03-18T14:36:43.703Z,46.52
2023-03-18T14:39:16.674Z,45.77
2023-03-18T14:41:47.125Z,45.61
2023-03-18T14:44:18.867Z,45.71
2023-03-18T14:46:50.337Z,45.29
2023-03-18T14:49:36.327Z,45.55
2023-03-18T14:52:06.094Z,45.47
2023-03-18T14:54:38.185Z,45.11
2023-03-18T14:57:05.848Z,45.37
2023-03-18T14:59:33.446Z,45.88
2023-03-18T15:02:02.181Z,45.32
2023-03-18T15:04:30.271Z,45.86
2023-03-18T15:07:02.555Z,45.79
2023-03-18T15:09:32.459Z,46.06
2023-03-18T15:12:15.686Z,46.05
2023-03-18T15:14:43.371Z,46.04
2023-03-18T15:17:16.769Z,46.59
2023-03-18T15:19:46.358Z,46.72
2023-03-18T15:22:20.810Z,46.92
2023-03-18T15:24:48.498Z,46.99
2023-03-18T15:27:20.450Z,47.16
2023-03-18T15:30:05.175Z,47.07
2023-03-18T15:32:50.030Z,47.01
2023-03-18T15:35:18.018Z,47.24
2023-03-18T15:37:47.128Z,47.47
2023-03-18T15:40:16.957Z,47.46
2023-03-18T15:42:45.381Z,47.60
2023-03-18T15:45:21.150Z,47.88
2023-03-18T15:47:48.900Z,47.76
2023-03-18T15:50:19.597Z,47.97
2023-03-18T15:52:47.916Z,48.16
2023-03-18T15:55:33.221Z,48.15
2023-03-18T15:58:03.698Z,48.29
2023-03-18T16:00:32.526Z,48.41
2023-03-18T16:03:00.278Z,48.42
2023-03-18T16:05:28.997Z,48.61
2023-03-18T16:07:57.002Z,48.72
2023-03-18T16:10:26.268Z,48.89
2023-03-18T16:12:57.983Z,48.95
2023-03-18T16:15:27.914Z,49.01
2023-03-18T16:17:56.142Z,49.07
2023-03-18T16:20:28.784Z,49.10
2023-03-18T16:22:56.776Z,49.22
2023-03-18T16:25:24.954Z,49.26
2023-03-18T16:27:54.237Z,49.39
2023-03-18T16:30:24.367Z,49.53
2023-03-18T16:32:52.745Z,49.70
2023-03-18T16:35:21.866Z,49.72
2023-03-18T16:37:49.724Z,49.93
2023-03-18T16:40:19.211Z,49.80
2023-03-18T16:42:50.672Z,50.06
2023-03-18T16:45:19.900Z,50.07
2023-03-18T16:47:50.026Z,50.13
2023-03-18T16:50:17.772Z,50.14
2023-03-18T16:52:46.220Z,50.20
2023-03-18T16:55:15.113Z,50.36
2023-03-18T16:57:43.842Z,50.29
2023-03-18T17:00:19.238Z,50.40
2023-03-18T17:02:46.932Z,50.46
2023-03-18T17:05:15.853Z,50.75
2023-03-18T17:07:44.085Z,50.82
2023-03-18T17:10:12.671Z,50.78
2023-03-18T17:12:44.392Z,50.88
2023-03-18T17:15:14.654Z,50.95
2023-03-18T17:17:43.214Z,51.00
2023-03-18T17:20:18.234Z,51.16
2023-03-18T17:22:45.864Z,51.31
2023-03-18T17:25:13.929Z,51.43
2023-03-18T17:27:41.886Z,51.45
2023-03-18T17:30:16.081Z,51.53
2023-03-18T17:32:46.118Z,51.64
2023-03-18T17:35:15.719Z,51.68
2023-03-18T17:37:43.884Z,51.78
2023-03-18T17:40:12.654Z,51.80
2023-03-18T17:42:40.949Z,51.87
2023-03-18T17:45:14.736Z,51.88
2023-03-18T17:47:42.370Z,52.12
2023-03-18T17:50:14.411Z,52.11
2023-03-18T17:52:42.027Z,52.14
2023-03-18T17:55:17.681Z,52.20
2023-03-18T17:57:45.560Z,52.18
2023-03-18T18:00:14.588Z,52.14
2023-03-18T18:02:42.764Z,52.20
2023-03-18T18:05:18.092Z,52.22
2023-03-18T18:07:46.459Z,52.31
2023-03-18T18:10:16.069Z,52.45
2023-03-18T18:12:44.753Z,52.61
2023-03-18T18:15:20.098Z,52.63
2023-03-18T18:17:48.526Z,52.65
2023-03-18T18:20:16.743Z,52.71
2023-03-18T18:22:46.784Z,52.84
2023-03-18T18:25:16.190Z,52.90
2023-03-18T18:27:43.912Z,52.95
2023-03-18T18:30:19.393Z,52.99
2023-03-18T18:32:47.109Z,53.18
2023-03-18T18:35:16.753Z,53.05
2023-03-18T18:37:45.256Z,53.15
2023-03-18T18:40:14.051Z,53.26
2023-03-18T18:42:42.129Z,53.23
2023-03-18T18:45:14.906Z,53.42
2023-03-18T18:47:42.889Z,53.38
2023-03-18T18:50:18.329Z,53.49
2023-03-18T18:52:47.240Z,53.70
2023-03-18T18:55:15.414Z,53.86
2023-03-18T18:57:43.165Z,53.72
2023-03-18T19:00:17.272Z,53.78
2023-03-18T19:02:48.339Z,53.87
2023-03-18T19:05:16.399Z,53.92
2023-03-18T19:07:45.457Z,54.06
2023-03-18T19:10:14.672Z,53.93
2023-03-18T19:12:44.216Z,53.99
2023-03-18T19:15:15.286Z,54.11
2023-03-18T19:17:43.539Z,54.11
2023-03-18T19:20:26.004Z,54.13
2023-03-18T19:22:53.991Z,54.36
2023-03-18T19:25:21.747Z,54.34
2023-03-18T19:27:49.706Z,54.44
2023-03-18T19:30:22.293Z,54.45
2023-03-18T19:32:50.714Z,54.49
2023-03-18T19:35:18.432Z,54.61
2023-03-18T19:37:47.437Z,54.62
2023-03-18T19:40:34.051Z,54.67
2023-03-18T19:43:01.730Z,54.67
2023-03-18T19:45:29.564Z,54.77
2023-03-18T19:47:57.479Z,54.90
2023-03-18T19:50:25.084Z,54.87
2023-03-18T19:52:54.047Z,55.05
2023-03-18T19:55:23.282Z,55.04
2023-03-18T19:57:51.865Z,55.13
2023-03-18T20:00:23.611Z,55.13
2023-03-18T20:02:51.603Z,55.19
2023-03-18T20:05:20.722Z,55.26
2023-03-18T20:07:50.325Z,55.33
2023-03-18T20:10:19.248Z,55.49
2023-03-18T20:12:50.556Z,55.64
2023-03-18T20:15:22.836Z,55.60
2023-03-18T20:17:51.413Z,55.64
2023-03-18T20:20:23.789Z,55.64
2023-03-18T20:22:53.619Z,55.82
2023-03-18T20:25:38.455Z,55.77
2023-03-18T20:28:07.363Z,55.91
2023-03-18T20:30:35.929Z,55.90
2023-03-18T20:33:04.507Z,56.20
2023-03-18T20:35:34.023Z,56.05
2023-03-18T20:38:09.788Z,56.14
2023-03-18T20:40:38.147Z,56.11
2023-03-18T20:43:05.777Z,56.27
2023-03-18T20:45:33.976Z,56.25
2023-03-18T20:48:01.858Z,56.32
2023-03-18T20:50:30.653Z,56.41
2023-03-18T20:52:58.944Z,56.37
2023-03-18T20:55:28.656Z,56.63
2023-03-18T20:57:57.183Z,56.56
2023-03-18T21:00:27.288Z,56.62
2023-03-18T21:02:57.478Z,56.69
2023-03-18T21:05:26.362Z,56.71
2023-03-18T21:07:54.029Z,56.79
2023-03-18T21:10:22.713Z,56.87
2023-03-18T21:12:50.907Z,56.86
2023-03-18T21:15:20.912Z,56.97
2023-03-18T21:17:49.809Z,57.01
2023-03-18T21:20:24.421Z,57.22
2023-03-18T21:22:52.610Z,57.14
2023-03-18T21:25:21.822Z,57.13
2023-03-18T21:27:50.282Z,57.28
2023-03-18T21:30:19.053Z,57.40
2023-03-18T21:32:47.215Z,57.40
2023-03-18T21:35:17.171Z,57.50
2023-03-18T21:37:44.872Z,57.56
2023-03-18T21:40:17.517Z,57.65
2023-03-18T21:42:46.199Z,57.74
2023-03-18T21:45:15.640Z,57.80
2023-03-18T21:47:43.258Z,57.90
2023-03-18T21:50:21.397Z,57.93
2023-03-18T21:52:49.149Z,57.99
2023-03-18T21:55:16.893Z,58.09
2023-03-18T21:57:46.244Z,58.26
2023-03-18T22:00:20.010Z,58.16
2023-03-18T22:02:47.988Z,58.08
2023-03-18T22:05:17.588Z,58.27
2023-03-18T22:07:45.866Z,58.31
2023-03-18T22:10:15.316Z,58.15
2023-03-18T22:12:43.488Z,58.34
2023-03-18T22:15:28.601Z,58.46
2023-03-18T22:17:56.518Z,58.59
2023-03-18T22:20:24.175Z,58.64
2023-03-18T22:22:51.977Z,58.67
2023-03-18T22:25:27.162Z,58.76
2023-03-18T22:27:54.849Z,58.92
2023-03-18T22:30:22.510Z,58.95
2023-03-18T22:32:51.641Z,59.08
2023-03-18T22:35:21.486Z,59.17
2023-03-18T22:37:49.653Z,59.31
2023-03-18T22:40:18.066Z,59.23
2023-03-18T22:42:47.257Z,59.32
2023-03-18T22:45:19.364Z,59.41
2023-03-18T22:47:47.504Z,59.38
2023-03-18T22:50:15.675Z,59.43
2023-03-18T22:52:43.925Z,59.66
2023-03-18T22:55:17.352Z,59.62
2023-03-18T22:57:45.222Z,59.66
2023-03-18T23:00:36.241Z,59.61
2023-03-18T23:03:04.353Z,59.82
2023-03-18T23:05:32.811Z,59.95
2023-03-18T23:08:00.852Z,60.03
2023-03-18T23:10:28.928Z,59.96
2023-03-18T23:12:56.588Z,60.02
2023-03-18T23:15:24.308Z,60.08
2023-03-18T23:17:52.063Z,60.25
2023-03-18T23:20:19.784Z,60.32
2023-03-18T23:22:47.476Z,60.33
2023-03-18T23:25:17.569Z,60.37
2023-03-18T23:27:45.395Z,60.43
2023-03-18T23:30:13.720Z,60.51
2023-03-18T23:32:41.524Z,60.60
2023-03-18T23:35:09.521Z,60.69
2023-03-18T23:37:37.159Z,60.67
2023-03-18T23:40:05.677Z,60.87
2023-03-18T23:42:33.359Z,60.84
2023-03-18T23:45:01.344Z,60.84
2023-03-18T23:47:29.185Z,60.90
2023-03-18T23:49:56.758Z,60.83
2023-03-18T23:52:24.426Z,60.96
2023-03-18T23:54:52.064Z,61.04
2023-03-18T23:57:19.693Z,61.08
2023-03-18T23:59:47.360Z,61.07
